UTDL

Khudzhand Airport

Khudzhand, Tajikistan
TAF UTDL 182100Z 1822/1907 08005MPS 2000 BR SCT011 BKN050CB TEMPO 1822/1901 VRB02MPS 1000 BR BECMG 1901/1903 24005MPS 3100 -SHRA BR SCT005 OVC040CB
Issued Valid From Valid To
Dec-18 @ 21:00 UTC
(3 hours ago)
Dec-18 @ 22:00 UTC
(2 hours ago)
Dec-19 @ 07:00 UTC
(in 7 hours)
Dec-18 @ 22:00 to Dec-19 @ 01:00
TAF UTDL 182100Z 1822/1907 08005MPS 2000 BR SCT011 BKN050CB
Wind Visibility Clouds Conditions
80° at 10 knots 1,996 meters
  • Scattered at 1,100' AGL
  • Broken at 5,000' AGL
  • Mist
Temporary Dec-18 @ 22:00 to Dec-19 @ 01:00
TEMPO 1822/1901 VRB02MPS 1000 BR
Wind Visibility Conditions
Variable at 4 knots 998 meters
  • Mist
Becoming Dec-19 @ 01:00 to Dec-19 @ 07:00
BECMG 1901/1903 24005MPS 3100 -SHRA BR SCT005 OVC040CB
Wind Visibility Clouds Conditions
240° at 10 knots 3,106 meters
  • Scattered at 500' AGL
  • Overcast at 4,000' AGL
  • Light Rain
  • Mist
TAF UTDL 182100Z 1822/1907 08005MPS 2000 BR SCT011 BKN050CB TEMPO 1822/1901 VRB02MPS 1000 BR BECMG 1901/1903 24005MPS 3100 -SHRA BR SCT005 OVC040CB
Issued Dec-18 @ 21:00 UTC
(3 hours ago)
Valid From Dec-18 @ 22:00 UTC
(2 hours ago)
Valid To Dec-19 @ 07:00 UTC
(in 7 hours)
Dec-18 @ 22:00 - Dec-19 @ 01:00
Wind Visibility
80° at 10 knots 1,996 meters
Clouds
  • Scattered at 1,100' AGL
  • Broken at 5,000' AGL
Conditions
  • Mist
Temporary Dec-18 @ 22:00 - Dec-19 @ 01:00
Wind Visibility
Variable at 4 knots 998 meters
Conditions
  • Mist
Becoming Dec-19 @ 01:00 - Dec-19 @ 07:00
Wind Visibility
240° at 10 knots 3,106 meters
Clouds
  • Scattered at 500' AGL
  • Overcast at 4,000' AGL
Conditions
  • Light Rain
  • Mist